»·PEaware :: N19688 KWHP-KSBD

N19688 :: KWHP-KSBD

FLIGHT INFORMATION

Flight Status: Arrived
Operator: Privately registered:
United States
More flights under this callsign
Pilot: Ron C. (11113)
Aircraft: CESSNA 172 SKYHAWK
(c172)
More flights by this aircraft type
Origin: KWHP Whiteman
United States
Destination: KSBD San Bernardino Intl
United States
More flights between these airports :: More routes between these airports
Route: +
File this flight plan on PilotEdge
Remarks:
Altitude:
(Current/Filed)
0ft
Speed:
(Current/Filed)
0kts
Departed: 13-Aug-16 08:15 AM
Arrived: 13-Aug-16 09:15 AM
Distance/Time
Traveled:
59nm/1:00
Distance/Time
To Go:
Arrived

Flight Plot

Page will automatically refresh every two minutes.

Flight plan parsing failed; only flown route is shown


Map Options




Map Legend


Flown Route
Filed Route
Departure Airport
Arrival Airport
Navaid (VOR, NDB)
Fix

Horizontal Profiles

Position Reports

Time Latitude Longitude Heading Altitude Ground
Speed
13-Aug-16 08:09 34.260342 -118.413979 320 1005ft 13kts
13-Aug-16 08:10 34.263627 -118.417147 286 1005ft 9kts
13-Aug-16 08:11 34.263636 -118.417194 280 1005ft 0kts
13-Aug-16 08:12 34.263681 -118.417425 281 1005ft 0kts
13-Aug-16 08:13 34.263698 -118.417524 282 1005ft 0kts
13-Aug-16 08:14 34.258128 -118.412079 135 1181ft 70kts
13-Aug-16 08:15 34.256854 -118.394915 350 1904ft 84kts
13-Aug-16 08:16 34.273582 -118.411996 309 2217ft 105kts
13-Aug-16 08:17 34.282748 -118.434904 299 2488ft 110kts
13-Aug-16 08:18 34.295846 -118.456293 304 2348ft 112kts
13-Aug-16 08:19 34.308721 -118.480036 305 2483ft 110kts
13-Aug-16 08:20 34.327245 -118.500520 330 2985ft 107kts
13-Aug-16 08:21 34.351822 -118.510985 353 3488ft 105kts
13-Aug-16 08:22 34.373791 -118.501776 63 3995ft 98kts
13-Aug-16 08:23 34.377515 -118.472134 97 4686ft 86kts
13-Aug-16 08:24 34.364111 -118.450031 140 5334ft 89kts
13-Aug-16 08:25 34.344194 -118.434688 152 5820ft 98kts
13-Aug-16 08:26 34.325408 -118.419648 135 6378ft 94kts
13-Aug-16 08:27 34.310435 -118.398810 123 6934ft 92kts
13-Aug-16 08:28 34.301925 -118.371688 110 7478ft 94kts
13-Aug-16 08:29 34.292753 -118.350126 124 7928ft 94kts
13-Aug-16 08:30 34.277557 -118.329559 129 8409ft 95kts
13-Aug-16 08:31 34.263043 -118.302625 120 8957ft 96kts
13-Aug-16 08:32 34.258319 -118.280351 98 9321ft 97kts
13-Aug-16 08:33 34.251907 -118.252191 113 9524ft 115kts
13-Aug-16 08:34 34.238035 -118.224389 120 9476ft 120kts
13-Aug-16 08:35 34.225154 -118.196657 119 9449ft 118kts
13-Aug-16 08:36 34.212460 -118.167523 114 9400ft 119kts
13-Aug-16 08:37 34.202637 -118.138372 103 9379ft 118kts
13-Aug-16 08:38 34.196930 -118.107351 107 9463ft 112kts
13-Aug-16 08:39 34.189928 -118.077985 109 9484ft 113kts
13-Aug-16 08:40 34.181239 -118.049800 111 9504ft 114kts
13-Aug-16 08:41 34.171785 -118.023175 111 9534ft 113kts
13-Aug-16 08:42 34.163235 -117.996722 108 9560ft 113kts
13-Aug-16 08:43 34.155797 -117.968578 107 9519ft 117kts
13-Aug-16 08:44 34.146874 -117.940272 121 9516ft 116kts
13-Aug-16 08:45 34.137226 -117.914161 106 9504ft 116kts
13-Aug-16 08:46 34.129968 -117.889558 110 9456ft 117kts
13-Aug-16 08:47 34.122575 -117.863646 109 9422ft 117kts
13-Aug-16 08:48 34.116594 -117.838048 104 9397ft 116kts
13-Aug-16 08:49 34.111996 -117.813267 101 9476ft 110kts
13-Aug-16 08:50 34.108529 -117.788424 100 9491ft 113kts
13-Aug-16 08:51 34.104063 -117.764057 103 9581ft 110kts
13-Aug-16 08:52 34.099495 -117.739964 102 9552ft 116kts
13-Aug-16 08:53 34.095462 -117.715432 100 9476ft 123kts
13-Aug-16 08:54 34.091937 -117.689870 97 9569ft 112kts
13-Aug-16 08:55 34.089512 -117.665061 98 9574ft 114kts
13-Aug-16 08:56 34.085737 -117.639014 93 9432ft 116kts
13-Aug-16 08:57 34.086249 -117.613298 84 9313ft 111kts
13-Aug-16 08:58 34.087221 -117.587838 87 9081ft 115kts
13-Aug-16 08:59 34.088112 -117.562365 89 8786ft 121kts
13-Aug-16 09:00 34.086954 -117.537380 94 8431ft 118kts
13-Aug-16 09:01 34.085418 -117.513702 94 8136ft 112kts
13-Aug-16 09:02 34.082680 -117.489774 99 7764ft 114kts
13-Aug-16 09:03 34.080268 -117.465974 92 7424ft 112kts
13-Aug-16 09:04 34.079703 -117.442578 91 7065ft 114kts
13-Aug-16 09:05 34.078639 -117.419266 96 6727ft 113kts
13-Aug-16 09:06 34.075907 -117.395678 96 6377ft 113kts
13-Aug-16 09:07 34.072990 -117.372064 98 6035ft 112kts
13-Aug-16 09:08 34.071977 -117.349384 89 5534ft 115kts
13-Aug-16 09:09 34.072176 -117.326683 79 4572ft 121kts
13-Aug-16 09:10 34.075350 -117.305359 71 3480ft 119kts
13-Aug-16 09:11 34.080381 -117.283583 65 2580ft 105kts
13-Aug-16 09:12 34.086179 -117.265588 61 1859ft 95kts
13-Aug-16 09:13 34.091611 -117.247475 68 1184ft 65kts
13-Aug-16 09:14 34.094393 -117.242177 352 1160ft 0kts
13-Aug-16 09:15 34.095033 -117.242217 355 1160ft 18kts
13-Aug-16 09:16 34.096517 -117.243391 286 1160ft 0kts

Navigation Log

Ident Type
Flight plan parsing failed, navigation log unavailable